Time;durP1;ratioP1;P1;durP2;ratioP2;P2;SDS_P1;SDS_P2;PMS_P1;PMS_P2;Temp;Humidity;BMP_temperature;BMP_pressure;BME280_temperature;BME280_humidity;BME280_pressure;Samples;Min_cycle;Max_cycle;Signal;HPM_P1;HPM_P2
2022/10/07 03:02:42;;;;;;;;;;;7.00;99.90;;;;;;5151530;23;20004;-68
2022/10/07 03:05:09;;;;;;;;;;;7.00;99.90;;;;;;4971566;28;19926;-68
2022/10/07 03:07:36;;;;;;;;;;;7.10;99.90;;;;;;4971733;28;20012;-67
2022/10/07 03:10:05;;;;;;;;;;;7.10;99.90;;;;;;4971820;28;19981;-67
2022/10/07 03:12:32;;;;;;;;;;;7.10;99.90;;;;;;4971406;28;20308;-67
2022/10/07 03:14:59;;;;;;;;;;;7.10;99.90;;;;;;4971261;28;19926;-68
2022/10/07 03:17:26;;;;;;;;;;;7.20;99.90;;;;;;4972250;28;19977;-67
2022/10/07 03:19:54;;;;;;;;;;;7.20;99.90;;;;;;4972137;28;20444;-69
2022/10/07 03:22:21;;;;;;;;;;;7.20;99.90;;;;;;4972100;28;19926;-67
2022/10/07 03:24:48;;;;;;;;;;;7.10;99.90;;;;;;4972542;28;20376;-67
2022/10/07 03:27:15;;;;;;;;;;;7.10;99.90;;;;;;4972581;28;20022;-67
2022/10/07 03:29:42;;;;;;;;;;;7.10;99.90;;;;;;4972448;28;20300;-67
2022/10/07 03:32:09;;;;;;;;;;;7.10;99.90;;;;;;4972278;28;19977;-67
2022/10/07 03:34:37;;;;;;;;;;;7.10;99.90;;;;;;4972132;28;19926;-68
2022/10/07 03:37:05;;;;;;;;;;;7.10;99.90;;;;;;4972369;28;19926;-67
2022/10/07 03:39:32;;;;;;;;;;;7.00;99.90;;;;;;4971936;28;19930;-68
2022/10/07 03:42:00;;;;;;;;;;;6.90;99.90;;;;;;4972234;28;19977;-67
2022/10/07 03:44:27;;;;;;;;;;;6.90;99.90;;;;;;4972257;28;20016;-67
2022/10/07 03:46:55;;;;;;;;;;;7.00;99.90;;;;;;4972264;28;19933;-67
2022/10/07 03:49:25;;;;;;;;;;;7.00;99.90;;;;;;4971641;28;19930;-67
2022/10/07 03:51:51;;;;;;;;;;;7.00;99.90;;;;;;4971895;28;19965;-67
2022/10/07 03:54:21;;;;;;;;;;;6.90;99.90;;;;;;4971914;28;19942;-68
2022/10/07 03:56:47;;;;;;;;;;;6.90;99.90;;;;;;4997592;23;20417;-65
2022/10/07 03:59:14;;;;;;;;;;;6.90;99.90;;;;;;4968689;28;19926;-68
2022/10/07 04:01:41;;;;;;;;;;;6.80;99.90;;;;;;4971395;28;20005;-69
2022/10/07 04:04:08;;;;;;;;;;;6.80;99.90;;;;;;4971256;28;19973;-69
2022/10/07 04:06:37;;;;;;;;;;;6.80;99.90;;;;;;4971513;28;19927;-67
2022/10/07 04:09:08;;;;;;;;;;;6.80;99.90;;;;;;4952400;29;20393;-69
2022/10/07 04:11:39;;;;;;;;;;;6.80;99.90;;;;;;4952810;29;20017;-68
2022/10/07 04:14:06;;;;;;;;;;;6.90;99.90;;;;;;4952835;29;20431;-69
2022/10/07 04:16:33;;;;;;;;;;;6.90;99.90;;;;;;4952841;29;20032;-68
2022/10/07 04:19:00;;;;;;;;;;;6.90;99.90;;;;;;4952418;28;19926;-68
2022/10/07 04:21:29;;;;;;;;;;;6.80;99.90;;;;;;4952945;29;19939;-68
2022/10/07 04:23:55;;;;;;;;;;;6.80;99.90;;;;;;4952480;29;20057;-66
2022/10/07 04:26:22;;;;;;;;;;;6.80;99.90;;;;;;4952858;29;19926;-69
2022/10/07 04:28:51;;;;;;;;;;;6.80;99.90;;;;;;4952251;28;19930;-68
2022/10/07 04:31:21;;;;;;;;;;;6.80;99.90;;;;;;4953805;28;20369;-68
2022/10/07 04:33:54;;;;;;;;;;;6.70;99.90;;;;;;4955778;29;19927;-68
2022/10/07 04:36:26;;;;;;;;;;;6.70;99.90;;;;;;4956100;29;19937;-67
2022/10/07 04:39:03;;;;;;;;;;;6.80;99.90;;;;;;4956086;28;20301;-69
2022/10/07 04:41:35;;;;;;;;;;;6.80;99.90;;;;;;4956202;29;19926;-69
2022/10/07 04:44:04;;;;;;;;;;;6.70;99.90;;;;;;4955814;29;20025;-69
2022/10/07 04:46:36;;;;;;;;;;;6.70;99.90;;;;;;4955832;29;19931;-67
2022/10/07 04:49:11;;;;;;;;;;;6.80;99.90;;;;;;4955572;29;20290;-68
2022/10/07 04:51:38;;;;;;;;;;;6.80;99.90;;;;;;4956068;29;20304;-68
2022/10/07 04:54:05;;;;;;;;;;;6.80;99.90;;;;;;4955419;29;19934;-69
2022/10/07 04:56:39;;;;;;;;;;;6.80;99.90;;;;;;4956022;29;19926;-69
2022/10/07 04:59:10;;;;;;;;;;;6.70;99.90;;;;;;4955669;28;19931;-68
2022/10/07 05:01:38;;;;;;;;;;;6.70;99.90;;;;;;4954016;28;20301;-69
2022/10/07 05:04:06;;;;;;;;;;;6.60;99.90;;;;;;4945679;29;19982;-68
2022/10/07 05:06:33;;;;;;;;;;;6.60;99.90;;;;;;4952214;29;20397;-69
2022/10/07 05:09:00;;;;;;;;;;;6.60;99.90;;;;;;4986573;28;19927;-68
2022/10/07 05:11:29;;;;;;;;;;;6.60;99.90;;;;;;4954459;29;20014;-68
2022/10/07 05:14:02;;;;;;;;;;;6.60;99.90;;;;;;4954243;29;19926;-68
2022/10/07 05:16:32;;;;;;;;;;;6.60;99.90;;;;;;4954304;29;19931;-68
2022/10/07 05:18:59;;;;;;;;;;;6.60;99.90;;;;;;4954264;28;20018;-68
2022/10/07 05:21:26;;;;;;;;;;;6.60;99.90;;;;;;4986653;28;19931;-68
2022/10/07 05:23:52;;;;;;;;;;;6.60;99.90;;;;;;4986429;28;19931;-67
2022/10/07 05:26:24;;;;;;;;;;;6.60;99.90;;;;;;4986723;28;19934;-68
2022/10/07 05:28:56;;;;;;;;;;;6.60;99.90;;;;;;4986076;28;19930;-68
2022/10/07 05:31:30;;;;;;;;;;;6.60;99.90;;;;;;4986598;28;19966;-68
2022/10/07 05:34:01;;;;;;;;;;;6.60;99.90;;;;;;4986033;28;20305;-68
2022/10/07 05:36:28;;;;;;;;;;;6.60;99.90;;;;;;4985323;28;19981;-68
2022/10/07 05:38:58;;;;;;;;;;;6.60;99.90;;;;;;4953514;29;20021;-69
2022/10/07 05:41:30;;;;;;;;;;;6.70;99.90;;;;;;4953960;28;20026;-68
2022/10/07 05:44:00;;;;;;;;;;;6.70;99.90;;;;;;4954082;29;19949;-68
2022/10/07 05:46:27;;;;;;;;;;;6.70;99.90;;;;;;4954019;29;19930;-69
2022/10/07 05:48:57;;;;;;;;;;;6.70;99.90;;;;;;4953312;29;19961;-69
2022/10/07 05:51:29;;;;;;;;;;;6.70;99.90;;;;;;4953837;29;19926;-69
2022/10/07 05:53:58;;;;;;;;;;;6.70;99.90;;;;;;4953331;29;19949;-68
2022/10/07 05:56:31;;;;;;;;;;;6.80;99.90;;;;;;4954586;29;19938;-66
2022/10/07 05:58:59;;;;;;;;;;;6.80;99.90;;;;;;4953851;28;19926;-65
2022/10/07 06:01:28;;;;;;;;;;;6.80;99.90;;;;;;4954238;29;20444;-65
2022/10/07 06:03:57;;;;;;;;;;;6.80;99.90;;;;;;4952465;29;19989;-68
2022/10/07 06:06:28;;;;;;;;;;;6.80;99.90;;;;;;4947181;29;20009;-68
2022/10/07 06:13:06;;;;;;;;;;;6.90;99.90;;;;;;4948723;28;20485;-68
2022/10/07 06:14:32;;;;;;;;;;;7.00;99.90;;;;;;4951434;29;20301;-68
2022/10/07 06:17:00;;;;;;;;;;;7.10;99.90;;;;;;4952381;29;19926;-68
2022/10/07 06:19:27;;;;;;;;;;;7.10;99.90;;;;;;4953159;29;19938;-69
2022/10/07 06:21:58;;;;;;;;;;;7.10;99.90;;;;;;4970255;28;20496;-66
2022/10/07 06:24:27;;;;;;;;;;;7.20;99.90;;;;;;4969521;28;19934;-67
2022/10/07 06:26:55;;;;;;;;;;;7.20;99.90;;;;;;4954319;29;19927;-66
2022/10/07 06:29:23;;;;;;;;;;;7.30;99.90;;;;;;4953448;29;19926;-66
2022/10/07 06:31:50;;;;;;;;;;;7.30;99.90;;;;;;4953515;29;20449;-74
2022/10/07 06:34:18;;;;;;;;;;;7.40;99.90;;;;;;4935781;29;19934;-68
2022/10/07 06:36:45;;;;;;;;;;;7.40;99.90;;;;;;4952069;28;20297;-69
2022/10/07 06:39:12;;;;;;;;;;;7.50;99.90;;;;;;4950269;29;19985;-68
2022/10/07 06:41:43;;;;;;;;;;;7.60;99.90;;;;;;4953225;29;19973;-68
2022/10/07 06:44:29;;;;;;;;;;;7.70;99.90;;;;;;4954091;29;20029;-68
2022/10/07 06:46:57;;;;;;;;;;;7.70;99.90;;;;;;4952729;29;19933;-67
2022/10/07 06:49:24;;;;;;;;;;;7.70;99.90;;;;;;4952507;29;19927;-68
2022/10/07 06:51:51;;;;;;;;;;;7.80;99.90;;;;;;4952894;29;19931;-68
2022/10/07 06:54:18;;;;;;;;;;;7.90;99.90;;;;;;4951794;28;19933;-68
2022/10/07 06:56:47;;;;;;;;;;;8.00;99.90;;;;;;4952583;28;19938;-68
2022/10/07 06:59:14;;;;;;;;;;;8.20;99.90;;;;;;4952345;29;19926;-68
2022/10/07 07:01:52;;;;;;;;;;;8.30;99.90;;;;;;4952909;29;20000;-68
2022/10/07 07:04:19;;;;;;;;;;;8.40;99.90;;;;;;4952388;29;20409;-68
2022/10/07 07:06:46;;;;;;;;;;;8.50;99.90;;;;;;4952506;29;19944;-67
2022/10/07 07:09:14;;;;;;;;;;;8.50;99.90;;;;;;4951973;29;20388;-68
2022/10/07 07:11:44;;;;;;;;;;;8.60;99.90;;;;;;4959144;28;20389;-68
2022/10/07 07:14:18;;;;;;;;;;;8.70;99.90;;;;;;4952457;29;19926;-68
2022/10/07 07:16:52;;;;;;;;;;;8.70;99.90;;;;;;4952724;28;19926;-68
2022/10/07 07:19:19;;;;;;;;;;;8.80;99.90;;;;;;4951820;29;19927;-68
2022/10/07 07:21:46;;;;;;;;;;;8.90;99.90;;;;;;4951904;29;19927;-68
2022/10/07 07:24:16;;;;;;;;;;;9.10;99.90;;;;;;4949509;29;19934;-67
2022/10/07 07:26:45;;;;;;;;;;;9.10;99.90;;;;;;4952158;28;19927;-67
2022/10/07 07:29:13;;;;;;;;;;;9.30;99.90;;;;;;4952114;29;20042;-66
2022/10/07 07:31:49;;;;;;;;;;;9.40;99.90;;;;;;4952436;29;19926;-66
2022/10/07 07:34:18;;;;;;;;;;;9.60;99.90;;;;;;4952093;29;20024;-66
2022/10/07 07:36:47;;;;;;;;;;;9.70;99.90;;;;;;4952314;28;19930;-65
2022/10/07 07:39:16;;;;;;;;;;;9.80;99.90;;;;;;4951877;29;19927;-65
2022/10/07 07:41:46;;;;;;;;;;;9.90;99.90;;;;;;4952395;29;19961;-67
2022/10/07 07:44:16;;;;;;;;;;;10.00;99.90;;;;;;4951820;29;20017;-67
2022/10/07 07:46:44;;;;;;;;;;;10.10;99.90;;;;;;4968016;28;20020;-67
2022/10/07 07:49:14;;;;;;;;;;;10.30;99.90;;;;;;4951461;29;19930;-67
2022/10/07 07:51:43;;;;;;;;;;;10.40;99.90;;;;;;4952455;29;20428;-66
2022/10/07 07:54:13;;;;;;;;;;;10.50;99.90;;;;;;4968233;28;19927;-67
2022/10/07 07:56:43;;;;;;;;;;;10.60;99.90;;;;;;4951149;29;19927;-67
2022/10/07 07:59:11;;;;;;;;;;;10.70;99.90;;;;;;4939803;28;19934;-67
2022/10/07 08:01:39;;;;;;;;;;;10.80;99.90;;;;;;4948958;29;19931;-66
2022/10/07 08:04:06;;;;;;;;;;;11.00;99.90;;;;;;4932949;29;20305;-66
2022/10/07 08:06:36;;;;;;;;;;;11.10;99.90;;;;;;4935312;29;19982;-66
2022/10/07 08:09:05;;;;;;;;;;;11.30;99.90;;;;;;4936524;29;19927;-66
2022/10/07 08:11:33;;;;;;;;;;;11.40;99.90;;;;;;4962646;28;19974;-67
2022/10/07 08:14:02;;;;;;;;;;;11.50;99.90;;;;;;4952158;29;19934;-65
2022/10/07 08:16:31;;;;;;;;;;;11.70;99.90;;;;;;4949273;29;19927;-67
2022/10/07 08:18:59;;;;;;;;;;;11.90;99.90;;;;;;4955931;29;20017;-65
2022/10/07 08:21:27;;;;;;;;;;;12.10;99.90;;;;;;4955571;29;19926;-69
2022/10/07 08:23:59;;;;;;;;;;;12.20;99.90;;;;;;4954891;29;19930;-68
2022/10/07 08:26:31;;;;;;;;;;;12.40;99.90;;;;;;4953214;29;19934;-69
2022/10/07 08:29:00;;;;;;;;;;;12.50;99.90;;;;;;4954562;28;20029;-69
2022/10/07 08:31:27;;;;;;;;;;;12.70;99.90;;;;;;4955497;29;19926;-67
2022/10/07 08:33:55;;;;;;;;;;;12.80;99.90;;;;;;4954607;29;19930;-68
2022/10/07 08:36:23;;;;;;;;;;;13.00;99.90;;;;;;4942404;29;19934;-68
2022/10/07 08:38:50;;;;;;;;;;;13.20;99.90;;;;;;4952495;28;19938;-68
2022/10/07 08:41:23;;;;;;;;;;;13.30;99.90;;;;;;4954587;29;20349;-68
2022/10/07 08:43:50;;;;;;;;;;;13.40;99.90;;;;;;4947566;29;19931;-69
2022/10/07 08:46:19;;;;;;;;;;;13.50;99.90;;;;;;4954653;29;20025;-68
2022/10/07 08:48:51;;;;;;;;;;;13.60;99.90;;;;;;4946349;29;19926;-69
2022/10/07 08:51:20;;;;;;;;;;;13.70;99.90;;;;;;4949139;29;19949;-70
2022/10/07 08:53:49;;;;;;;;;;;13.80;99.90;;;;;;4954417;29;19934;-69
2022/10/07 08:56:16;;;;;;;;;;;14.00;99.90;;;;;;4951384;29;19927;-69
2022/10/07 08:58:55;;;;;;;;;;;14.10;99.90;;;;;;4950540;28;19985;-69
2022/10/07 09:01:29;;;;;;;;;;;14.30;99.90;;;;;;4963626;28;19931;-69
2022/10/07 09:04:01;;;;;;;;;;;14.40;99.90;;;;;;4950934;29;19927;-69
2022/10/07 09:06:30;;;;;;;;;;;14.50;99.90;;;;;;4952068;29;19934;-68
2022/10/07 09:08:59;;;;;;;;;;;14.60;99.90;;;;;;4949877;29;19934;-68
2022/10/07 09:11:26;;;;;;;;;;;14.70;99.90;;;;;;4967191;28;20005;-69
2022/10/07 09:13:57;;;;;;;;;;;14.80;99.90;;;;;;4953291;29;19934;-68
2022/10/07 09:16:26;;;;;;;;;;;14.90;99.90;;;;;;4951985;28;20205;-69
2022/10/07 09:18:55;;;;;;;;;;;15.00;99.90;;;;;;4950500;29;19927;-69
2022/10/07 09:21:24;;;;;;;;;;;15.00;99.90;;;;;;4960388;28;19931;-69
2022/10/07 09:23:54;;;;;;;;;;;15.10;99.90;;;;;;4968480;28;19935;-69
2022/10/07 09:26:21;;;;;;;;;;;15.20;99.90;;;;;;4966018;28;19926;-69
2022/10/07 09:28:48;;;;;;;;;;;15.20;99.90;;;;;;4953479;28;20345;-68
2022/10/07 09:31:17;;;;;;;;;;;15.20;99.90;;;;;;4951553;29;19927;-69
2022/10/07 09:33:48;;;;;;;;;;;15.30;99.90;;;;;;4945767;29;20324;-68
2022/10/07 09:36:17;;;;;;;;;;;15.40;99.90;;;;;;4953961;29;20440;-67
2022/10/07 09:38:44;;;;;;;;;;;15.50;99.90;;;;;;4948036;29;19926;-69
2022/10/07 09:41:15;;;;;;;;;;;15.60;99.90;;;;;;4953728;29;19931;-68
2022/10/07 09:43:50;;;;;;;;;;;15.70;99.90;;;;;;4953877;28;19927;-69
2022/10/07 09:46:26;;;;;;;;;;;15.70;99.90;;;;;;4952550;29;20390;-69
2022/10/07 09:49:03;;;;;;;;;;;15.80;99.90;;;;;;4967548;28;19933;-69
2022/10/07 09:51:31;;;;;;;;;;;16.10;99.90;;;;;;4950131;29;20314;-70
2022/10/07 09:54:01;;;;;;;;;;;16.10;99.90;;;;;;4953096;29;19935;-70
2022/10/07 09:56:36;;;;;;;;;;;16.20;99.90;;;;;;4953266;29;19966;-68
2022/10/07 09:59:15;;;;;;;;;;;16.30;99.90;;;;;;4953994;28;20388;-70
2022/10/07 10:01:48;;;;;;;;;;;16.30;99.90;;;;;;4957317;28;19926;-69
2022/10/07 10:04:15;;;;;;;;;;;16.40;99.90;;;;;;4945764;29;19927;-70
2022/10/07 10:06:45;;;;;;;;;;;16.40;99.90;;;;;;4945655;29;20402;-70
2022/10/07 10:09:12;;;;;;;;;;;16.50;99.90;;;;;;4947511;29;20302;-69
2022/10/07 10:11:39;;;;;;;;;;;16.70;99.90;;;;;;4948115;29;19930;-70
2022/10/07 10:14:27;;;;;;;;;;;16.80;99.90;;;;;;4952451;29;20460;-70
2022/10/07 10:16:55;;;;;;;;;;;17.00;99.90;;;;;;4948649;29;20374;-70
2022/10/07 10:19:23;;;;;;;;;;;17.20;99.90;;;;;;4946728;29;19930;-69
2022/10/07 10:21:51;;;;;;;;;;;17.30;99.90;;;;;;4948137;29;20394;-69
2022/10/07 10:26:24;;;;;;;;;;;17.30;99.90;;;;;;4950819;29;20465;-71
2022/10/07 10:27:06;;;;;;;;;;;17.20;99.90;;;;;;4951878;29;19984;-72
2022/10/07 10:29:40;;;;;;;;;;;18.80;99.90;;;;;;4951683;28;19923;-70
2022/10/07 10:32:26;;;;;;;;;;;23.10;99.90;;;;;;4941545;29;19981;-69
2022/10/07 10:34:58;;;;;;;;;;;25.60;99.90;;;;;;4958154;28;19927;-70
2022/10/07 10:37:28;;;;;;;;;;;27.50;99.90;;;;;;4947043;29;19926;-71
2022/10/07 10:40:06;;;;;;;;;;;29.20;99.90;;;;;;4966520;28;19927;-71
2022/10/07 10:42:33;;;;;;;;;;;;;;;;;;4952145;29;20369;-71
2022/10/07 10:45:10;;;;;;;;;;;31.50;99.90;;;;;;4951886;29;19930;-72
2022/10/07 10:47:42;;;;;;;;;;;28.60;99.90;;;;;;4965546;28;19927;-69
2022/10/07 10:50:16;;;;;;;;;;;29.50;99.90;;;;;;4951958;29;19993;-71
2022/10/07 10:52:49;;;;;;;;;;;31.60;99.90;;;;;;4943334;29;19982;-71
2022/10/07 10:55:32;;;;;;;;;;;31.60;99.90;;;;;;4947598;29;20315;-71
2022/10/07 10:58:06;;;;;;;;;;;31.40;99.90;;;;;;4940155;28;20017;-67
2022/10/07 11:00:37;;;;;;;;;;;31.90;99.90;;;;;;4956502;29;19954;-69
2022/10/07 11:03:17;;;;;;;;;;;30.10;99.90;;;;;;4980131;28;19934;-69
2022/10/07 11:05:46;;;;;;;;;;;29.60;99.90;;;;;;4950362;29;20302;-69
2022/10/07 11:08:16;;;;;;;;;;;30.80;99.90;;;;;;4942589;28;19927;-69
2022/10/07 11:10:46;;;;;;;;;;;30.70;99.90;;;;;;4953398;28;19927;-69
2022/10/07 11:13:24;;;;;;;;;;;31.70;99.90;;;;;;4947203;29;20011;-69
2022/10/07 11:15:53;;;;;;;;;;;30.30;99.90;;;;;;4948337;29;19932;-69
2022/10/07 11:18:21;;;;;;;;;;;30.00;99.90;;;;;;4952230;29;19926;-69
2022/10/07 11:20:50;;;;;;;;;;;31.20;99.90;;;;;;4951526;29;20342;-70
2022/10/07 11:23:21;;;;;;;;;;;32.50;99.90;;;;;;4953762;28;19926;-69
2022/10/07 11:25:51;;;;;;;;;;;31.70;99.90;;;;;;4960964;29;19934;-70
2022/10/07 11:28:20;;;;;;;;;;;30.30;99.90;;;;;;4956242;28;19931;-69
2022/10/07 11:30:50;;;;;;;;;;;31.70;99.90;;;;;;4942591;29;19935;-69
2022/10/07 11:33:22;;;;;;;;;;;30.90;99.90;;;;;;4951286;29;20005;-69
2022/10/07 11:35:54;;;;;;;;;;;29.10;99.90;;;;;;4951169;29;20033;-70
2022/10/07 11:38:22;;;;;;;;;;;29.10;99.90;;;;;;4945694;29;19933;-69
2022/10/07 11:40:50;;;;;;;;;;;30.30;99.90;;;;;;4948843;28;19942;-70
2022/10/07 11:43:21;;;;;;;;;;;29.80;99.90;;;;;;4944510;29;19933;-70
2022/10/07 11:45:50;;;;;;;;;;;31.50;99.90;;;;;;4948228;29;19957;-70
2022/10/07 11:48:20;;;;;;;;;;;31.50;99.90;;;;;;4946019;28;19927;-70
2022/10/07 11:50:48;;;;;;;;;;;32.80;99.90;;;;;;4951038;29;19927;-70
2022/10/07 11:53:20;;;;;;;;;;;32.30;99.90;;;;;;4951295;29;20021;-70
2022/10/07 11:55:48;;;;;;;;;;;32.70;99.90;;;;;;4950184;29;19961;-70
2022/10/07 11:58:22;;;;;;;;;;;32.80;99.90;;;;;;4944556;28;20014;-70
2022/10/07 12:00:49;;;;;;;;;;;30.10;99.90;;;;;;4949722;29;19977;-70
2022/10/07 12:03:30;;;;;;;;;;;30.00;99.90;;;;;;4950529;29;19969;-69
2022/10/07 12:06:06;;;;;;;;;;;31.50;99.90;;;;;;4949539;28;19926;-69
2022/10/07 12:08:35;;;;;;;;;;;31.90;99.90;;;;;;4949885;29;19994;-69
2022/10/07 12:11:21;;;;;;;;;;;30.90;99.90;;;;;;4948537;28;20385;-70
2022/10/07 12:13:49;;;;;;;;;;;30.50;99.90;;;;;;4947702;29;19926;-70
2022/10/07 12:16:34;;;;;;;;;;;31.60;99.90;;;;;;4950347;29;19926;-70
2022/10/07 12:19:17;;;;;;;;;;;31.50;99.90;;;;;;4949059;29;20429;-68
2022/10/07 12:22:03;;;;;;;;;;;31.20;99.90;;;;;;4950079;29;19941;-69
2022/10/07 12:24:32;;;;;;;;;;;32.60;99.90;;;;;;4966876;28;19933;-70
2022/10/07 12:27:05;;;;;;;;;;;31.20;99.90;;;;;;4951027;29;19927;-69
2022/10/07 12:29:35;;;;;;;;;;;32.60;99.90;;;;;;4949666;28;19937;-70
2022/10/07 12:32:02;;;;;;;;;;;31.60;99.90;;;;;;4965458;28;20401;-68
2022/10/07 12:34:34;;;;;;;;;;;32.80;99.90;;;;;;4950387;29;19974;-68
2022/10/07 12:37:34;;;;;;;;;;;32.20;99.90;;;;;;4943270;29;20374;-68
2022/10/07 12:40:05;;;;;;;;;;;33.50;99.90;;;;;;4854159;29;20395;-67
2022/10/07 12:42:33;;;;;;;;;;;29.60;99.90;;;;;;4853944;29;20370;-68
2022/10/07 12:45:00;;;;;;;;;;;29.50;99.90;;;;;;4898787;29;19926;-68
2022/10/07 12:47:29;;;;;;;;;;;32.40;99.90;;;;;;4946837;28;20346;-68
2022/10/07 12:49:59;;;;;;;;;;;33.30;99.90;;;;;;4945667;29;19931;-68
2022/10/07 12:52:37;;;;;;;;;;;32.80;99.90;;;;;;4949719;28;20304;-68
2022/10/07 12:55:08;;;;;;;;;;;31.80;99.90;;;;;;4953580;29;19957;-68
2022/10/07 12:57:35;;;;;;;;;;;32.40;99.90;;;;;;4948785;29;20017;-68
2022/10/07 13:00:06;;;;;;;;;;;30.70;99.90;;;;;;4954004;29;20385;-68
2022/10/07 13:03:02;;;;;;;;;;;30.50;99.90;;;;;;4953654;28;20340;-69
2022/10/07 13:05:48;;;;;;;;;;;29.60;99.90;;;;;;4952879;29;20383;-68
2022/10/07 13:08:26;;;;;;;;;;;30.00;99.90;;;;;;4953336;28;19938;-68
2022/10/07 13:11:05;;;;;;;;;;;30.10;99.90;;;;;;4966074;28;19927;-67
2022/10/07 13:13:34;;;;;;;;;;;27.80;99.90;;;;;;4953926;29;19926;-67
2022/10/07 13:16:06;;;;;;;;;;;28.50;99.90;;;;;;4955310;28;19927;-68
2022/10/07 13:18:38;;;;;;;;;;;29.20;99.90;;;;;;4954082;28;19927;-68
2022/10/07 13:21:10;;;;;;;;;;;29.00;99.90;;;;;;4951320;28;19927;-68
2022/10/07 13:23:37;;;;;;;;;;;29.30;99.90;;;;;;4951827;29;19927;-69
2022/10/07 13:26:06;;;;;;;;;;;29.60;99.90;;;;;;4951300;29;19930;-68
2022/10/07 13:28:37;;;;;;;;;;;28.90;99.90;;;;;;4967301;28;19934;-69
2022/10/07 13:31:15;;;;;;;;;;;28.20;99.90;;;;;;4951276;29;19931;-68
2022/10/07 13:33:43;;;;;;;;;;;28.90;99.90;;;;;;4953387;29;19926;-71
2022/10/07 13:36:14;;;;;;;;;;;28.50;99.90;;;;;;4944916;28;19935;-69
2022/10/07 13:38:41;;;;;;;;;;;27.80;99.90;;;;;;4961294;28;19927;-68
2022/10/07 13:41:13;;;;;;;;;;;28.30;99.90;;;;;;4945256;29;19930;-68
2022/10/07 13:43:42;;;;;;;;;;;28.10;99.90;;;;;;4950235;29;19950;-69
2022/10/07 13:46:09;;;;;;;;;;;27.70;99.90;;;;;;4953572;29;19937;-69
2022/10/07 13:48:38;;;;;;;;;;;28.20;99.90;;;;;;4953684;29;19989;-68
2022/10/07 13:51:05;;;;;;;;;;;28.50;99.90;;;;;;4953802;29;20393;-69
2022/10/07 13:53:33;;;;;;;;;;;27.40;99.90;;;;;;4953726;29;19926;-69
2022/10/07 13:56:04;;;;;;;;;;;27.90;99.90;;;;;;4952561;29;19926;-69
2022/10/07 13:58:33;;;;;;;;;;;28.80;99.90;;;;;;4954692;28;19927;-70
2022/10/07 14:01:02;;;;;;;;;;;29.30;99.90;;;;;;4953180;29;19977;-70
2022/10/07 14:03:29;;;;;;;;;;;30.10;99.90;;;;;;4950818;28;19931;-70
2022/10/07 14:05:56;;;;;;;;;;;29.30;99.80;;;;;;4951560;29;19927;-70
2022/10/07 14:08:26;;;;;;;;;;;29.60;99.90;;;;;;4951597;29;19930;-68
2022/10/07 14:10:55;;;;;;;;;;;28.50;99.90;;;;;;4951426;29;19956;-69
2022/10/07 14:13:22;;;;;;;;;;;28.20;99.90;;;;;;4951310;29;19931;-69
2022/10/07 14:15:54;;;;;;;;;;;28.40;99.90;;;;;;4952253;29;20381;-69
2022/10/07 14:18:21;;;;;;;;;;;28.50;99.90;;;;;;4952945;28;19977;-67
2022/10/07 14:20:52;;;;;;;;;;;28.00;99.90;;;;;;4953278;29;19931;-69
2022/10/07 14:23:22;;;;;;;;;;;28.00;99.90;;;;;;4953006;29;19926;-69
2022/10/07 14:25:51;;;;;;;;;;;28.90;99.90;;;;;;4953104;29;19934;-69
2022/10/07 14:28:19;;;;;;;;;;;29.10;99.90;;;;;;4953024;28;19927;-70
2022/10/07 14:36:32;;;;;;;;;;;29.00;99.90;;;;;;4952920;29;19926;-69
2022/10/07 14:39:02;;;;;;;;;;;28.90;99.90;;;;;;4952946;28;19926;-69
2022/10/07 14:41:30;;;;;;;;;;;28.60;99.90;;;;;;4953190;29;19926;-69
2022/10/07 14:43:58;;;;;;;;;;;28.60;99.90;;;;;;4952637;29;19926;-69
2022/10/07 14:46:26;;;;;;;;;;;28.10;99.90;;;;;;4968835;28;19926;-69
2022/10/07 14:48:55;;;;;;;;;;;27.30;99.90;;;;;;4952704;29;19930;-69
2022/10/07 14:51:22;;;;;;;;;;;27.00;99.90;;;;;;4952811;29;19926;-70
2022/10/07 14:53:50;;;;;;;;;;;28.10;99.90;;;;;;4952710;29;19927;-69
2022/10/07 14:56:21;;;;;;;;;;;29.20;99.90;;;;;;4952735;29;19954;-70
2022/10/07 14:58:47;;;;;;;;;;;29.20;99.90;;;;;;4952395;29;20346;-70
2022/10/07 15:01:15;;;;;;;;;;;28.10;99.90;;;;;;4952399;29;19930;-69
2022/10/07 15:03:41;;;;;;;;;;;28.10;99.90;;;;;;4952647;29;20030;-69
2022/10/07 15:06:10;;;;;;;;;;;27.90;99.90;;;;;;4952523;29;19930;-69
2022/10/07 15:08:36;;;;;;;;;;;26.70;99.90;;;;;;4968295;28;19973;-69
2022/10/07 15:11:05;;;;;;;;;;;26.30;99.90;;;;;;4952282;29;19930;-68
2022/10/07 15:13:31;;;;;;;;;;;26.80;99.90;;;;;;4952316;29;20342;-69
2022/10/07 15:15:58;;;;;;;;;;;26.30;99.90;;;;;;4952444;28;19937;-68
2022/10/07 15:18:25;;;;;;;;;;;27.00;99.90;;;;;;4968448;28;19966;-69
2022/10/07 15:20:55;;;;;;;;;;;26.30;99.90;;;;;;4952442;29;19927;-68
2022/10/07 15:23:24;;;;;;;;;;;25.50;99.90;;;;;;4951315;29;20402;-69
2022/10/07 15:25:51;;;;;;;;;;;26.00;99.90;;;;;;4952214;29;19930;-69
2022/10/07 15:28:18;;;;;;;;;;;25.80;99.90;;;;;;4952386;29;19927;-69
2022/10/07 15:30:45;;;;;;;;;;;26.60;99.90;;;;;;4952194;29;19962;-69
2022/10/07 15:33:13;;;;;;;;;;;27.40;99.90;;;;;;4952016;29;19927;-69
2022/10/07 15:35:40;;;;;;;;;;;27.30;99.90;;;;;;4952169;29;20305;-69
2022/10/07 15:38:07;;;;;;;;;;;27.50;99.90;;;;;;4948767;29;19927;-69
2022/10/07 15:40:44;;;;;;;;;;;28.20;99.90;;;;;;4948445;28;20313;-70
2022/10/07 15:43:11;;;;;;;;;;;28.10;99.90;;;;;;4946347;29;19930;-70
2022/10/07 15:45:44;;;;;;;;;;;26.60;99.90;;;;;;4951928;28;19927;-70
2022/10/07 15:48:11;;;;;;;;;;;26.10;99.90;;;;;;4952146;28;19934;-69
2022/10/07 15:50:37;;;;;;;;;;;25.50;99.90;;;;;;4951630;29;19926;-68
2022/10/07 15:53:04;;;;;;;;;;;25.10;99.90;;;;;;4951297;29;19941;-69
2022/10/07 15:55:32;;;;;;;;;;;24.90;99.90;;;;;;4950706;29;20026;-69
2022/10/07 15:58:00;;;;;;;;;;;24.40;99.90;;;;;;4979568;23;19930;-73
2022/10/07 16:00:27;;;;;;;;;;;24.30;99.90;;;;;;4971843;28;19988;-73
2022/10/07 16:02:56;;;;;;;;;;;23.70;99.90;;;;;;4971676;28;19926;-73
2022/10/07 16:05:23;;;;;;;;;;;23.20;99.90;;;;;;4970749;28;19961;-72
2022/10/07 16:07:50;;;;;;;;;;;22.70;99.90;;;;;;4972271;28;19930;-72
2022/10/07 16:10:17;;;;;;;;;;;22.30;99.90;;;;;;4970594;28;19941;-73
2022/10/07 16:12:44;;;;;;;;;;;21.70;99.90;;;;;;4970455;28;19926;-73
2022/10/07 16:15:12;;;;;;;;;;;21.50;99.90;;;;;;4964776;28;20277;-73
2022/10/07 16:17:39;;;;;;;;;;;21.20;99.90;;;;;;4975325;28;19965;-72
2022/10/07 16:20:06;;;;;;;;;;;20.90;99.90;;;;;;4970290;28;20360;-73
2022/10/07 16:22:32;;;;;;;;;;;20.70;99.90;;;;;;4964742;28;19989;-72
2022/10/07 16:24:59;;;;;;;;;;;20.40;99.90;;;;;;4970006;28;19934;-73
2022/10/07 16:30:39;;;;;;;;;;;20.20;99.90;;;;;;4969740;28;19975;-74
2022/10/07 16:32:59;;;;;;;;;;;19.80;99.90;;;;;;4973623;28;19961;-74
2022/10/07 16:35:28;;;;;;;;;;;19.60;99.90;;;;;;4966337;28;19930;-74
2022/10/07 16:37:55;;;;;;;;;;;19.40;99.90;;;;;;4986762;28;19930;-73
2022/10/07 16:40:22;;;;;;;;;;;19.20;99.90;;;;;;4973764;28;19934;-73
2022/10/07 16:42:49;;;;;;;;;;;18.90;99.90;;;;;;4971964;28;19930;-70
2022/10/07 16:45:18;;;;;;;;;;;18.60;99.90;;;;;;4970715;28;19938;-72
2022/10/07 16:47:44;;;;;;;;;;;18.60;99.90;;;;;;4970379;28;19926;-72
2022/10/07 16:50:11;;;;;;;;;;;18.50;99.90;;;;;;4971985;28;19926;-72
2022/10/07 16:52:38;;;;;;;;;;;18.30;99.90;;;;;;4968324;28;19926;-69
2022/10/07 16:55:05;;;;;;;;;;;18.20;99.90;;;;;;4973741;28;20356;-68
2022/10/07 16:57:33;;;;;;;;;;;18.10;99.90;;;;;;4971544;28;19925;-68
2022/10/07 17:00:00;;;;;;;;;;;18.00;99.90;;;;;;4971010;28;19926;-73
2022/10/07 17:02:28;;;;;;;;;;;17.70;99.90;;;;;;4965539;28;19927;-71
2022/10/07 17:04:55;;;;;;;;;;;17.50;99.90;;;;;;4973099;28;19926;-72
2022/10/07 17:07:22;;;;;;;;;;;17.30;99.90;;;;;;4973574;28;19958;-72
2022/10/07 17:09:48;;;;;;;;;;;17.00;99.90;;;;;;4973703;28;20385;-72
2022/10/07 17:12:15;;;;;;;;;;;16.90;99.90;;;;;;4973637;28;20036;-73
2022/10/07 17:14:42;;;;;;;;;;;16.80;99.90;;;;;;4973714;28;19926;-73
2022/10/07 17:17:09;;;;;;;;;;;16.70;99.90;;;;;;4973241;28;20282;-72
2022/10/07 17:19:37;;;;;;;;;;;16.60;99.90;;;;;;4973541;28;19934;-72
2022/10/07 17:22:04;;;;;;;;;;;16.50;99.90;;;;;;4973353;28;20397;-72
2022/10/07 17:24:31;;;;;;;;;;;16.40;99.90;;;;;;4973558;28;20349;-73
2022/10/07 17:26:57;;;;;;;;;;;16.30;99.90;;;;;;4973369;28;19926;-72
2022/10/07 17:29:25;;;;;;;;;;;16.20;99.90;;;;;;4973512;28;20448;-71
2022/10/07 17:31:51;;;;;;;;;;;16.00;99.90;;;;;;4987198;28;20038;-73
2022/10/07 17:34:19;;;;;;;;;;;15.90;99.90;;;;;;4972576;28;19934;-72
2022/10/07 17:36:47;;;;;;;;;;;15.80;99.90;;;;;;4973846;28;19930;-73
2022/10/07 17:39:14;;;;;;;;;;;15.60;99.90;;;;;;4973398;28;20369;-72
2022/10/07 17:41:41;;;;;;;;;;;15.40;99.90;;;;;;4972675;28;20286;-69
2022/10/07 17:44:10;;;;;;;;;;;15.30;99.90;;;;;;4972703;28;20385;-72
2022/10/07 17:46:37;;;;;;;;;;;15.20;99.90;;;;;;4973161;28;19949;-72
2022/10/07 17:49:06;;;;;;;;;;;15.10;99.90;;;;;;4972985;28;19930;-68